createdAt,value
2019-05-18T00:01:50.388Z,23.33
2019-05-18T00:04:21.418Z,24.17
2019-05-18T00:06:52.260Z,22.50
2019-05-18T00:09:22.793Z,23.97
2019-05-18T00:11:52.728Z,25.37
2019-05-18T00:14:23.572Z,23.93
2019-05-18T00:16:54.145Z,24.13
2019-05-18T00:19:24.726Z,24.17
2019-05-18T00:21:55.228Z,24.10
2019-05-18T00:24:25.508Z,24.57
2019-05-18T00:26:55.757Z,23.60
2019-05-18T00:29:26.407Z,22.93
2019-05-18T00:31:57.215Z,23.97
2019-05-18T00:34:27.388Z,22.87
2019-05-18T00:36:57.578Z,24.33
2019-05-18T00:39:27.944Z,21.80
2019-05-18T00:41:58.548Z,24.40
2019-05-18T00:44:28.876Z,23.40
2019-05-18T00:46:58.932Z,24.07
2019-05-18T00:49:29.678Z,24.37
2019-05-18T00:52:00.293Z,22.23
2019-05-18T00:54:30.887Z,22.50
2019-05-18T00:57:01.233Z,22.10
2019-05-18T00:59:31.907Z,23.77
2019-05-18T01:02:02.388Z,24.63
2019-05-18T01:04:32.840Z,25.63
2019-05-18T01:07:03.815Z,23.40
2019-05-18T01:09:34.854Z,24.60
2019-05-18T01:12:05.217Z,22.73
2019-05-18T01:14:35.851Z,26.23
2019-05-18T01:17:06.010Z,23.00
2019-05-18T01:19:36.330Z,25.17
2019-05-18T01:22:06.698Z,24.97
2019-05-18T01:24:37.531Z,26.57
2019-05-18T01:27:07.616Z,22.73
2019-05-18T01:29:38.516Z,23.30
2019-05-18T01:32:08.595Z,25.67
2019-05-18T01:34:38.800Z,24.20
2019-05-18T01:37:09.364Z,24.77
2019-05-18T01:39:39.902Z,28.60
2019-05-18T01:42:09.934Z,27.50
2019-05-18T01:44:40.144Z,24.83
2019-05-18T01:47:10.380Z,24.63
2019-05-18T01:49:41.013Z,26.63
2019-05-18T01:52:11.633Z,25.87
2019-05-18T01:54:41.949Z,25.27
2019-05-18T01:57:12.541Z,23.27
2019-05-18T01:59:43.677Z,22.67
2019-05-18T02:02:14.049Z,24.57
2019-05-18T02:04:44.697Z,22.00
2019-05-18T02:07:15.543Z,23.27
2019-05-18T02:09:45.717Z,24.97
2019-05-18T02:12:15.995Z,23.33
2019-05-18T02:14:46.309Z,25.90
2019-05-18T02:17:16.917Z,26.67
2019-05-18T02:19:47.230Z,26.50
2019-05-18T02:22:17.885Z,27.07
2019-05-18T02:24:48.439Z,25.63
2019-05-18T02:27:18.349Z,25.93
2019-05-18T02:29:49.250Z,26.70
2019-05-18T02:32:19.443Z,25.43
2019-05-18T02:34:50.329Z,24.10
2019-05-18T02:37:20.861Z,23.50
2019-05-18T02:39:55.207Z,24.27
2019-05-18T02:42:25.814Z,24.03
2019-05-18T02:44:56.866Z,23.30
2019-05-18T02:47:27.458Z,24.90
2019-05-18T02:49:57.804Z,25.70
2019-05-18T02:52:28.329Z,26.60
2019-05-18T02:54:58.641Z,25.63
2019-05-18T02:57:29.293Z,25.30
2019-05-18T02:59:59.647Z,24.40
2019-05-18T03:02:30.355Z,26.20
2019-05-18T03:05:00.332Z,27.00
2019-05-18T03:07:30.469Z,31.87
2019-05-18T03:10:00.686Z,26.80
2019-05-18T03:12:31.445Z,28.77
2019-05-18T03:15:01.841Z,28.90
2019-05-18T03:17:32.694Z,32.97
2019-05-18T03:20:03.047Z,33.53
2019-05-18T03:22:33.274Z,29.33
2019-05-18T03:25:03.516Z,27.70
2019-05-18T03:27:34.287Z,27.60
2019-05-18T03:30:04.940Z,30.57
2019-05-18T03:32:36.142Z,28.53
2019-05-18T03:35:06.487Z,26.30
2019-05-18T03:37:36.819Z,25.90
2019-05-18T03:40:08.089Z,28.00
2019-05-18T03:42:38.111Z,24.53
2019-05-18T03:45:09.354Z,27.67
2019-05-18T03:47:39.536Z,24.93
2019-05-18T03:50:10.611Z,24.70
2019-05-18T03:52:41.138Z,23.37
2019-05-18T03:55:11.131Z,23.93
2019-05-18T03:57:42.067Z,24.00
2019-05-18T04:00:12.879Z,22.37
2019-05-18T04:02:43.652Z,23.67
2019-05-18T04:05:13.818Z,26.73
2019-05-18T04:07:44.943Z,23.97
2019-05-18T04:10:15.861Z,22.47
2019-05-18T04:12:45.847Z,21.77
2019-05-18T04:15:15.886Z,21.63
2019-05-18T04:17:45.815Z,22.97
2019-05-18T04:20:17.344Z,24.30
2019-05-18T04:22:47.622Z,21.50
2019-05-18T04:25:18.123Z,20.93
2019-05-18T04:27:48.024Z,22.17
2019-05-18T04:30:19.062Z,22.90
2019-05-18T04:32:49.908Z,22.30
2019-05-18T04:35:20.524Z,20.87
2019-05-18T04:37:50.777Z,21.43
2019-05-18T04:40:21.126Z,21.67
2019-05-18T04:42:51.620Z,20.50
2019-05-18T04:45:21.643Z,19.60
2019-05-18T04:47:51.941Z,19.87
2019-05-18T04:50:22.145Z,20.77
2019-05-18T04:52:52.594Z,21.37
2019-05-18T04:55:22.927Z,22.00
2019-05-18T04:57:53.172Z,22.63
2019-05-18T05:00:23.178Z,24.70
2019-05-18T05:02:53.089Z,25.05
2019-05-18T05:05:23.073Z,26.90
2019-05-18T05:07:53.538Z,26.27
2019-05-18T05:10:23.862Z,24.23
2019-05-18T05:12:54.209Z,25.20
2019-05-18T05:15:24.602Z,27.20
2019-05-18T05:17:54.555Z,23.27
2019-05-18T05:20:24.492Z,25.63
2019-05-18T05:22:54.411Z,25.47
2019-05-18T05:25:24.678Z,26.30
2019-05-18T05:27:55.187Z,25.33
2019-05-18T05:30:25.439Z,24.00
2019-05-18T05:32:56.279Z,24.93
2019-05-18T05:35:26.799Z,23.60
2019-05-18T05:37:57.322Z,23.00
2019-05-18T05:40:28.458Z,24.73
2019-05-18T05:42:59.312Z,20.53
2019-05-18T05:45:29.259Z,21.43
2019-05-18T05:47:59.220Z,20.20
2019-05-18T05:50:35.963Z,26.60
2019-05-18T05:53:00.893Z,41.63
2019-05-18T05:55:31.233Z,14.30
2019-05-18T05:58:01.836Z,12.93
2019-05-18T06:00:32.069Z,10.33
2019-05-18T06:03:02.301Z,10.30
2019-05-18T06:05:32.840Z,11.10
2019-05-18T06:08:03.475Z,9.03
2019-05-18T06:10:33.365Z,8.60
2019-05-18T06:13:04.159Z,8.93
2019-05-18T06:15:34.399Z,9.20
2019-05-18T06:18:04.966Z,8.30
2019-05-18T06:20:50.114Z,8.17
2019-05-18T06:23:08.076Z,7.50
2019-05-18T06:25:38.395Z,7.13
2019-05-18T06:28:08.374Z,8.43
2019-05-18T06:30:38.661Z,7.50
2019-05-18T06:33:08.972Z,9.30
2019-05-18T06:35:39.489Z,10.50
2019-05-18T06:38:10.016Z,10.90
2019-05-18T06:40:40.247Z,13.83
2019-05-18T06:43:10.466Z,13.63
2019-05-18T06:45:40.397Z,14.50
2019-05-18T06:48:10.536Z,16.33
2019-05-18T06:50:40.746Z,15.70
2019-05-18T06:53:10.923Z,18.53
2019-05-18T06:55:41.773Z,15.60
2019-05-18T06:58:12.841Z,16.63
2019-05-18T07:00:43.144Z,15.23
2019-05-18T07:03:14.060Z,16.40
2019-05-18T07:05:44.633Z,16.20
2019-05-18T07:08:14.597Z,18.63
2019-05-18T07:10:44.568Z,41.80
2019-05-18T07:13:14.952Z,26.73
2019-05-18T07:15:46.127Z,14.73
2019-05-18T07:18:16.746Z,15.10
2019-05-18T07:20:47.287Z,15.37
2019-05-18T07:23:17.365Z,14.07
2019-05-18T07:25:47.285Z,13.10
2019-05-18T07:28:17.640Z,14.27
2019-05-18T07:30:48.456Z,13.50
2019-05-18T07:33:19.488Z,15.97
2019-05-18T07:35:50.455Z,14.80
2019-05-18T07:38:20.685Z,15.03
2019-05-18T07:40:51.199Z,14.63
2019-05-18T07:43:21.473Z,14.43
2019-05-18T07:45:52.264Z,17.13
2019-05-18T07:48:22.833Z,14.37
2019-05-18T07:50:53.534Z,19.87
2019-05-18T07:53:23.535Z,14.30
2019-05-18T07:55:53.848Z,13.67
2019-05-18T07:58:24.489Z,12.90
2019-05-18T08:00:54.896Z,13.00
2019-05-18T08:03:25.667Z,12.53
2019-05-18T08:05:56.445Z,11.97
2019-05-18T08:08:26.976Z,12.97
2019-05-18T08:10:57.761Z,12.67
2019-05-18T08:13:28.588Z,14.03
2019-05-18T08:15:59.239Z,12.67
2019-05-18T08:18:30.048Z,14.57
2019-05-18T08:21:00.966Z,12.70
2019-05-18T08:23:31.937Z,10.57
2019-05-18T08:26:02.558Z,11.30
2019-05-18T08:28:33.699Z,10.50
2019-05-18T08:31:03.812Z,13.83
2019-05-18T08:33:34.885Z,9.87
2019-05-18T08:36:05.301Z,8.27
2019-05-18T08:38:35.837Z,9.53
2019-05-18T08:41:05.928Z,8.30
2019-05-18T08:43:36.995Z,11.40
2019-05-18T08:46:07.620Z,11.17
2019-05-18T08:48:38.591Z,9.63
2019-05-18T08:51:08.616Z,9.57
2019-05-18T08:53:40.005Z,8.80
2019-05-18T08:56:10.249Z,6.70
2019-05-18T08:58:40.988Z,6.30
2019-05-18T09:01:10.925Z,5.13
2019-05-18T09:03:41.537Z,4.53
2019-05-18T09:06:11.807Z,4.67
2019-05-18T09:08:41.733Z,3.17
2019-05-18T09:11:11.975Z,3.70
2019-05-18T09:13:42.193Z,2.97
2019-05-18T09:16:12.417Z,2.83
2019-05-18T09:18:42.962Z,3.13
2019-05-18T09:21:12.892Z,2.20
2019-05-18T09:23:42.919Z,2.70
2019-05-18T09:26:13.714Z,2.77
2019-05-18T09:28:43.694Z,2.80
2019-05-18T09:31:13.686Z,3.07
2019-05-18T09:33:44.003Z,3.13
2019-05-18T09:36:13.934Z,3.10
2019-05-18T09:38:44.217Z,3.20
2019-05-18T09:41:14.730Z,3.90
2019-05-18T09:43:44.723Z,2.70
2019-05-18T09:46:15.636Z,2.40
2019-05-18T09:48:45.788Z,2.90
2019-05-18T09:51:16.074Z,2.67
2019-05-18T09:53:51.629Z,2.60
2019-05-18T09:56:18.946Z,2.30
2019-05-18T09:58:49.466Z,2.90
2019-05-18T10:01:19.793Z,3.20
2019-05-18T10:03:50.547Z,2.80
2019-05-18T10:06:20.845Z,2.63
2019-05-18T10:08:51.127Z,2.50
2019-05-18T10:11:21.102Z,2.80
2019-05-18T10:13:51.288Z,3.30
2019-05-18T10:16:21.847Z,3.60
2019-05-18T10:18:51.764Z,7.63
2019-05-18T10:21:22.361Z,5.80
2019-05-18T10:23:52.339Z,5.27
2019-05-18T10:26:22.280Z,5.90
2019-05-18T10:28:52.542Z,7.37
2019-05-18T10:31:23.070Z,6.67
2019-05-18T10:33:53.708Z,8.47
2019-05-18T10:36:24.354Z,7.47
2019-05-18T10:38:55.141Z,6.40
2019-05-18T10:41:25.375Z,7.63
2019-05-18T10:43:56.643Z,7.40
2019-05-18T10:46:27.273Z,7.33
2019-05-18T10:48:57.613Z,6.87
2019-05-18T10:51:27.844Z,7.27
2019-05-18T10:53:58.041Z,7.57
2019-05-18T10:56:31.201Z,8.40
2019-05-18T10:59:02.085Z,14.47
2019-05-18T11:01:32.139Z,7.17
2019-05-18T11:04:02.562Z,7.30
2019-05-18T11:06:32.862Z,6.70
2019-05-18T11:09:02.885Z,7.70
2019-05-18T11:11:33.907Z,7.13
2019-05-18T11:14:05.063Z,6.43
2019-05-18T11:16:35.583Z,5.60
2019-05-18T11:19:09.551Z,5.93
2019-05-18T11:21:40.291Z,5.10
2019-05-18T11:24:10.309Z,8.83
2019-05-18T11:26:40.675Z,5.33
2019-05-18T11:29:11.215Z,6.20
2019-05-18T11:31:41.764Z,6.30
2019-05-18T11:34:12.353Z,5.57
2019-05-18T11:36:43.304Z,5.80
2019-05-18T11:39:14.133Z,6.40
2019-05-18T11:41:44.637Z,6.00
2019-05-18T11:44:14.562Z,5.67
2019-05-18T11:46:44.484Z,7.60
2019-05-18T11:49:14.423Z,5.80
2019-05-18T11:51:44.735Z,6.00
2019-05-18T11:54:15.001Z,6.30
2019-05-18T11:56:46.900Z,5.93
2019-05-18T11:59:16.877Z,7.80
2019-05-18T12:01:46.872Z,6.77
2019-05-18T12:04:17.194Z,6.20
2019-05-18T12:06:47.402Z,5.73
2019-05-18T12:09:17.578Z,7.20
2019-05-18T12:11:47.505Z,6.43
2019-05-18T12:14:17.733Z,5.93
2019-05-18T12:16:48.068Z,9.37
2019-05-18T12:19:18.298Z,5.33
2019-05-18T12:21:49.139Z,5.13
2019-05-18T12:24:19.553Z,11.53
2019-05-18T12:26:50.092Z,6.10
2019-05-18T12:29:20.732Z,5.00
2019-05-18T12:31:51.336Z,5.00
2019-05-18T12:34:22.173Z,6.63
2019-05-18T12:36:52.831Z,4.60
2019-05-18T12:39:22.823Z,4.53
2019-05-18T12:41:53.681Z,5.63
2019-05-18T12:44:24.048Z,4.70
2019-05-18T12:46:54.463Z,5.17
2019-05-18T12:49:25.056Z,4.80
2019-05-18T12:51:55.678Z,5.07
2019-05-18T12:54:30.858Z,3.30
2019-05-18T12:56:57.683Z,4.40
2019-05-18T12:59:27.972Z,4.17
2019-05-18T13:01:58.604Z,4.90
2019-05-18T13:04:28.862Z,3.93
2019-05-18T13:06:59.602Z,3.23
2019-05-18T13:09:30.104Z,3.40
2019-05-18T13:12:01.181Z,3.77
2019-05-18T13:14:32.070Z,3.00
2019-05-18T13:17:02.925Z,3.77
2019-05-18T13:19:33.449Z,3.40
2019-05-18T13:22:03.810Z,3.63
2019-05-18T13:24:44.775Z,3.87
2019-05-18T13:27:05.436Z,4.40
2019-05-18T13:29:35.801Z,4.20
2019-05-18T13:32:06.403Z,4.90
2019-05-18T13:34:37.247Z,3.90
2019-05-18T13:37:07.256Z,2.87
2019-05-18T13:39:37.511Z,3.40
2019-05-18T13:42:07.939Z,3.63
2019-05-18T13:44:38.345Z,3.47
2019-05-18T13:47:08.597Z,4.50
2019-05-18T13:49:39.196Z,3.67
2019-05-18T13:52:09.842Z,3.20
2019-05-18T13:54:40.256Z,4.13
2019-05-18T13:57:10.565Z,3.43
2019-05-18T13:59:41.401Z,3.87
2019-05-18T14:02:11.745Z,3.47
2019-05-18T14:04:42.691Z,4.47
2019-05-18T14:07:12.689Z,3.63
2019-05-18T14:09:43.046Z,4.60
2019-05-18T14:12:13.786Z,3.80
2019-05-18T14:14:44.636Z,3.67
2019-05-18T14:17:15.849Z,3.67
2019-05-18T14:19:46.624Z,3.53
